Time;durP1;ratioP1;P1;durP2;ratioP2;P2;SDS_P1;SDS_P2;PMS_P1;PMS_P2;Temp;Humidity;BMP_temperature;BMP_pressure;BME280_temperature;BME280_humidity;BME280_pressure;Samples;Min_cycle;Max_cycle;Signal;HPM_P1;HPM_P2
2023/08/11 00:01:04;;;;;;;0.40;0.20;;;;;;;16.49;95.50;100725.97;4988445;28;20557;-51
2023/08/11 00:03:30;;;;;;;0.40;0.20;;;;;;;16.19;95.75;100728.22;4999985;28;20967;-51
2023/08/11 00:05:57;;;;;;;0.40;0.20;;;;;;;16.23;96.17;100729.81;5006333;28;20450;-52
2023/08/11 00:08:24;;;;;;;0.40;0.20;;;;;;;16.28;95.85;100722.44;5006645;28;20457;-52
2023/08/11 00:10:52;;;;;;;0.40;0.20;;;;;;;16.33;95.57;100735.66;4999424;28;20491;-51
2023/08/11 00:13:18;;;;;;;0.40;0.20;;;;;;;16.33;95.08;100736.53;4999302;28;20540;-51
2023/08/11 00:15:44;;;;;;;0.40;0.20;;;;;;;16.04;96.49;100735.16;5006121;28;20481;-51
2023/08/11 00:18:11;;;;;;;0.40;0.20;;;;;;;16.06;96.61;100738.63;5006587;28;20942;-50
2023/08/11 00:20:37;;;;;;;0.40;0.20;;;;;;;16.05;96.50;100736.03;5001034;28;20882;-51
2023/08/11 00:23:05;;;;;;;0.40;0.20;;;;;;;16.15;96.09;100742.69;4999541;28;20511;-50
2023/08/11 00:25:31;;;;;;;0.40;0.20;;;;;;;16.23;95.71;100737.88;5005071;28;20891;-51
2023/08/11 00:27:58;;;;;;;0.40;0.20;;;;;;;16.14;95.54;100743.63;5007094;28;20532;-50
2023/08/11 00:30:25;;;;;;;0.40;0.20;;;;;;;16.13;95.59;100742.75;5001369;28;20506;-51
2023/08/11 00:32:51;;;;;;;0.40;0.20;;;;;;;15.90;95.70;100738.44;4999701;28;20445;-51
2023/08/11 00:35:18;;;;;;;0.40;0.20;;;;;;;15.83;96.40;100734.25;5004695;28;20456;-51
2023/08/11 00:37:45;;;;;;;0.40;0.20;;;;;;;15.87;96.93;100741.22;5006271;28;20453;-52
2023/08/11 00:40:12;;;;;;;0.40;0.20;;;;;;;15.75;97.23;100731.03;5002646;28;20994;-51
2023/08/11 00:42:38;;;;;;;0.40;0.20;;;;;;;15.74;97.64;100734.63;5006566;28;20464;-51
2023/08/11 00:45:06;;;;;;;0.40;0.20;;;;;;;15.82;97.22;100734.31;5001326;28;20477;-51
2023/08/11 00:47:32;;;;;;;0.40;0.20;;;;;;;15.77;96.75;100734.53;5010762;28;20535;-50
2023/08/11 00:49:59;;;;;;;0.40;0.20;;;;;;;15.54;98.10;100735.47;5001524;28;20465;-51
2023/08/11 00:52:26;;;;;;;0.40;0.20;;;;;;;15.54;98.33;100743.50;4999364;28;20544;-51
2023/08/11 00:54:55;;;;;;;0.40;0.20;;;;;;;15.56;98.71;100735.41;5003753;28;20485;-50
2023/08/11 00:57:22;;;;;;;0.40;0.20;;;;;;;15.68;97.95;100734.91;5005861;28;20832;-51
2023/08/11 00:59:50;;;;;;;0.40;0.20;;;;;;;15.65;98.15;100741.28;5002569;28;20574;-51
2023/08/11 01:02:17;;;;;;;0.40;0.20;;;;;;;15.54;98.15;100735.47;4999157;28;20449;-51
2023/08/11 01:04:43;;;;;;;0.40;0.20;;;;;;;15.56;98.08;100733.59;5002350;28;20453;-51
2023/08/11 01:07:22;;;;;;;0.40;0.20;;;;;;;15.53;98.08;100731.03;5006311;28;20936;-51
2023/08/11 01:10:12;;;;;;;0.40;0.20;;;;;;;15.57;97.53;100721.06;4995894;28;20465;-51
2023/08/11 01:12:59;;;;;;;0.40;0.20;;;;;;;15.34;98.61;100719.31;4990150;28;20456;-51
2023/08/11 01:15:38;;;;;;;0.40;0.20;;;;;;;15.39;97.55;100712.00;4998985;28;20448;-51
2023/08/11 01:18:05;;;;;;;0.40;0.20;;;;;;;15.53;97.58;100717.66;4999809;28;20508;-51
2023/08/11 01:20:33;;;;;;;0.40;0.20;;;;;;;15.56;97.30;100709.47;4999053;28;20579;-51
2023/08/11 01:23:01;;;;;;;0.40;0.20;;;;;;;15.62;97.21;100711.94;4999049;28;20477;-51
2023/08/11 01:25:29;;;;;;;0.40;0.20;;;;;;;15.60;96.31;100708.44;5007912;28;20449;-51
2023/08/11 01:27:58;;;;;;;0.40;0.20;;;;;;;15.52;96.68;100715.91;5010694;28;20527;-51
2023/08/11 01:30:26;;;;;;;0.40;0.20;;;;;;;15.54;96.50;100710.47;5004718;28;20488;-50
2023/08/11 01:32:52;;;;;;;0.40;0.20;;;;;;;15.32;96.97;100723.88;5003036;28;20457;-49
2023/08/11 01:35:20;;;;;;;0.40;0.20;;;;;;;15.28;97.51;100720.47;5008062;28;20450;-48
2023/08/11 01:38:04;;;;;;;0.40;0.20;;;;;;;15.19;97.77;100712.78;5010123;28;20450;-49
2023/08/11 01:40:30;;;;;;;0.40;0.20;;;;;;;15.16;98.00;100717.41;5005216;28;20497;-49
2023/08/11 01:43:00;;;;;;;0.40;0.20;;;;;;;15.28;97.74;100722.28;5009564;28;20453;-49
2023/08/11 01:45:28;;;;;;;0.40;0.20;;;;;;;15.23;98.01;100721.59;5008021;28;20453;-49
2023/08/11 01:47:55;;;;;;;0.40;0.20;;;;;;;15.28;97.45;100719.59;5010929;28;20508;-49
2023/08/11 01:50:23;;;;;;;0.40;0.20;;;;;;;15.18;97.61;100716.41;5008037;28;20503;-49
2023/08/11 01:52:52;;;;;;;0.40;0.20;;;;;;;15.20;97.86;100714.53;5002547;28;20575;-49
2023/08/11 01:55:18;;;;;;;0.40;0.20;;;;;;;15.21;97.50;100726.13;5003630;28;20537;-49
2023/08/11 01:57:45;;;;;;;0.40;0.20;;;;;;;15.24;96.84;100724.22;5009167;28;20536;-49
2023/08/11 02:00:25;;;;;;;0.40;0.20;;;;;;;15.18;97.59;100721.75;5009044;28;20495;-49
2023/08/11 02:02:52;;;;;;;1.00;1.00;;;;;;;15.13;97.66;100717.53;5004320;28;20502;-49
2023/08/11 02:05:19;;;;;;;0.40;0.20;;;;;;;14.95;98.03;100720.03;5002029;28;20509;-49
2023/08/11 02:07:46;;;;;;;0.40;0.20;;;;;;;15.05;97.95;100716.03;5007037;28;20536;-49
2023/08/11 02:10:12;;;;;;;0.40;0.20;;;;;;;15.03;97.97;100723.25;5000561;28;20476;-49
2023/08/11 02:12:40;;;;;;;0.40;0.20;;;;;;;14.97;98.20;100723.50;5006209;28;20834;-49
2023/08/11 02:15:08;;;;;;;0.40;0.20;;;;;;;14.81;98.91;100714.34;5008844;28;20466;-49
2023/08/11 02:17:35;;;;;;;0.40;0.20;;;;;;;14.85;98.86;100721.31;5005525;28;20452;-49
2023/08/11 02:20:16;;;;;;;0.40;0.20;;;;;;;14.80;99.54;100716.16;5001834;28;20492;-49
2023/08/11 02:22:44;;;;;;;0.40;0.20;;;;;;;14.84;99.18;100716.91;5003799;28;20462;-49
2023/08/11 02:25:10;;;;;;;0.40;0.20;;;;;;;14.88;99.54;100720.31;5008681;28;20450;-49
2023/08/11 02:27:37;;;;;;;0.40;0.20;;;;;;;14.88;99.06;100709.63;5007181;28;20871;-49
2023/08/11 02:30:05;;;;;;;0.40;0.20;;;;;;;14.98;98.75;100711.00;5001900;28;20483;-49
2023/08/11 02:32:32;;;;;;;0.40;0.20;;;;;;;14.95;98.66;100714.69;5003060;28;20883;-49
2023/08/11 02:34:58;;;;;;;0.40;0.20;;;;;;;14.90;99.07;100705.94;5009245;28;20453;-49
2023/08/11 02:37:25;;;;;;;0.40;0.20;;;;;;;14.76;99.35;100706.47;5007663;28;20535;-49
2023/08/11 02:39:52;;;;;;;0.40;0.20;;;;;;;14.84;99.51;100708.00;5004240;28;20485;-49
2023/08/11 02:42:18;;;;;;;0.40;0.20;;;;;;;14.80;98.76;100708.13;5008109;28;20453;-49
2023/08/11 02:44:45;;;;;;;0.40;0.20;;;;;;;14.82;98.63;100708.06;4994105;28;20538;-49
2023/08/11 02:47:11;;;;;;;0.40;0.20;;;;;;;14.85;98.88;100712.41;5015098;28;20515;-49
2023/08/11 02:49:38;;;;;;;0.40;0.20;;;;;;;14.61;99.68;100703.53;5001687;28;20452;-49
2023/08/11 02:52:04;;;;;;;0.40;0.20;;;;;;;14.66;99.44;100705.09;5002189;28;20549;-48
2023/08/11 02:54:31;;;;;;;2.50;2.40;;;;;;;14.85;98.59;100713.28;5008122;28;20524;-49
2023/08/11 02:56:58;;;;;;;0.40;0.20;;;;;;;14.68;98.96;100699.72;5008091;28;20547;-49
2023/08/11 02:59:24;;;;;;;0.40;0.20;;;;;;;14.75;99.22;100702.06;5001802;28;20958;-49
2023/08/11 03:01:51;;;;;;;0.40;0.20;;;;;;;14.74;99.02;100710.16;5000949;28;20496;-49
2023/08/11 03:04:17;;;;;;;0.40;0.20;;;;;;;14.75;99.34;100699.38;5007425;28;20495;-49
2023/08/11 03:06:47;;;;;;;0.40;0.20;;;;;;;14.79;99.43;100711.72;5007921;28;21008;-49
2023/08/11 03:09:14;;;;;;;0.40;0.20;;;;;;;14.69;100.00;100706.78;4997522;28;20833;-50
2023/08/11 03:11:40;;;;;;;0.40;0.20;;;;;;;14.71;100.00;100707.59;5007876;28;20465;-49
2023/08/11 03:14:07;;;;;;;0.40;0.20;;;;;;;14.58;99.92;100714.34;5002042;28;20457;-49
2023/08/11 03:16:33;;;;;;;0.40;0.20;;;;;;;14.56;99.78;100718.91;5001390;28;20453;-49
2023/08/11 03:19:00;;;;;;;0.40;0.20;;;;;;;14.59;99.98;100718.78;5006509;28;20460;-48
2023/08/11 03:21:26;;;;;;;0.40;0.20;;;;;;;14.60;99.74;100729.41;5007691;28;20496;-49
2023/08/11 03:23:53;;;;;;;0.40;0.20;;;;;;;14.72;100.00;100723.59;5002334;28;20455;-49
2023/08/11 03:26:19;;;;;;;0.40;0.20;;;;;;;14.64;99.78;100722.13;5000684;28;20454;-48
2023/08/11 03:28:46;;;;;;;0.40;0.20;;;;;;;14.53;100.00;100711.88;5006556;28;20842;-49
2023/08/11 03:31:12;;;;;;;0.40;0.20;;;;;;;14.53;99.73;100722.56;5007173;28;20896;-48
2023/08/11 03:33:39;;;;;;;0.40;0.20;;;;;;;14.45;99.60;100722.84;5002472;28;20453;-49
2023/08/11 03:36:05;;;;;;;0.40;0.20;;;;;;;14.45;99.49;100727.31;5000698;28;20459;-50
2023/08/11 03:38:31;;;;;;;0.40;0.20;;;;;;;14.31;99.71;100722.47;5010343;28;20548;-49
2023/08/11 03:40:58;;;;;;;0.40;0.20;;;;;;;14.24;100.00;100716.44;5000408;28;21085;-48
2023/08/11 03:43:24;;;;;;;0.40;0.20;;;;;;;14.32;99.74;100724.19;5006013;28;20516;-49
2023/08/11 03:45:51;;;;;;;0.40;0.20;;;;;;;14.40;99.35;100723.94;5008898;28;20523;-49
2023/08/11 03:48:19;;;;;;;0.40;0.20;;;;;;;14.41;100.00;100725.66;5003685;28;20457;-49
2023/08/11 03:50:45;;;;;;;0.40;0.20;;;;;;;14.55;99.94;100727.88;4992583;28;20557;-49
2023/08/11 03:53:12;;;;;;;0.40;0.20;;;;;;;14.30;99.56;100723.38;5005108;28;20454;-49
2023/08/11 03:55:39;;;;;;;0.40;0.20;;;;;;;14.29;99.07;100724.31;5007233;28;20537;-49
2023/08/11 03:58:06;;;;;;;0.40;0.20;;;;;;;14.29;98.90;100720.78;5002577;28;20453;-49
2023/08/11 04:00:33;;;;;;;0.40;0.20;;;;;;;14.35;98.93;100724.06;5000257;28;20881;-49
2023/08/11 04:02:59;;;;;;;0.40;0.20;;;;;;;14.29;99.44;100721.66;5004819;28;20449;-49
2023/08/11 04:05:26;;;;;;;0.40;0.20;;;;;;;14.30;99.14;100720.72;5006960;28;20448;-49
2023/08/11 04:07:53;;;;;;;0.40;0.20;;;;;;;14.28;100.00;100719.91;5002411;28;20499;-49
2023/08/11 04:10:20;;;;;;;0.40;0.20;;;;;;;14.24;99.90;100715.56;4999922;28;20462;-49
2023/08/11 04:12:46;;;;;;;0.40;0.20;;;;;;;14.38;99.67;100715.94;5004120;28;20998;-48
2023/08/11 04:15:13;;;;;;;0.40;0.20;;;;;;;14.36;99.54;100714.25;5006820;28;20531;-49
2023/08/11 04:17:40;;;;;;;0.40;0.20;;;;;;;14.21;100.00;100715.69;5002568;28;20456;-49
2023/08/11 04:20:14;;;;;;;0.40;0.20;;;;;;;14.24;100.00;100720.91;4999697;28;20544;-49
2023/08/11 04:22:41;;;;;;;0.40;0.20;;;;;;;14.23;100.00;100729.88;5002686;28;20454;-48
2023/08/11 04:25:09;;;;;;;0.40;0.20;;;;;;;14.24;100.00;100735.16;5006342;28;20453;-49
2023/08/11 04:27:37;;;;;;;0.40;0.20;;;;;;;14.39;100.00;100724.81;5004274;28;20448;-48
2023/08/11 04:30:04;;;;;;;0.40;0.20;;;;;;;14.46;100.00;100734.41;4999613;28;20493;-48
2023/08/11 04:32:30;;;;;;;0.40;0.20;;;;;;;14.48;100.00;100737.91;5001746;28;20446;-48
2023/08/11 04:34:57;;;;;;;0.40;0.20;;;;;;;14.38;100.00;100750.69;5006654;28;20454;-49
2023/08/11 04:37:23;;;;;;;0.40;0.20;;;;;;;14.41;99.97;100747.94;5004743;28;20460;-48
2023/08/11 04:39:50;;;;;;;0.40;0.20;;;;;;;14.48;99.95;100743.25;5003701;28;20474;-49
2023/08/11 04:42:17;;;;;;;0.40;0.20;;;;;;;14.48;100.00;100741.44;5005210;28;20892;-50
2023/08/11 04:44:43;;;;;;;0.40;0.20;;;;;;;14.46;100.00;100742.44;4999560;28;20456;-49
2023/08/11 04:47:10;;;;;;;0.40;0.20;;;;;;;14.53;100.00;100741.31;5012627;28;20471;-48
2023/08/11 04:49:37;;;;;;;0.40;0.20;;;;;;;14.53;100.00;100746.66;4999284;28;20906;-48
2023/08/11 04:52:03;;;;;;;0.40;0.20;;;;;;;14.50;100.00;100741.38;5000023;28;20457;-49
2023/08/11 04:54:30;;;;;;;0.40;0.20;;;;;;;14.86;100.00;100744.47;5005982;28;20449;-50
2023/08/11 04:56:56;;;;;;;0.40;0.20;;;;;;;15.63;97.44;100747.66;5005566;28;20947;-48
2023/08/11 04:59:23;;;;;;;0.40;0.20;;;;;;;16.33;94.21;100752.63;4999006;28;20540;-48
2023/08/11 05:01:49;;;;;;;0.40;0.20;;;;;;;16.64;92.69;100748.53;4999581;28;20584;-49
2023/08/11 05:04:16;;;;;;;0.40;0.20;;;;;;;16.86;91.40;100755.56;4999401;28;20519;-50
2023/08/11 05:06:43;;;;;;;0.40;0.20;;;;;;;17.30;89.93;100759.75;4999165;28;20457;-49
2023/08/11 05:09:09;;;;;;;0.40;0.20;;;;;;;17.60;88.54;100754.66;5005624;28;20499;-49
2023/08/11 05:11:37;;;;;;;0.40;0.20;;;;;;;17.55;88.35;100754.03;5005784;28;20468;-49
2023/08/11 05:14:03;;;;;;;0.40;0.20;;;;;;;17.59;88.04;100761.00;5000142;28;20535;-49
2023/08/11 05:16:30;;;;;;;0.40;0.20;;;;;;;17.84;87.55;100752.59;4999024;28;20939;-50
2023/08/11 05:18:56;;;;;;;0.40;0.20;;;;;;;17.96;86.65;100758.22;5004685;28;20459;-48
2023/08/11 05:21:23;;;;;;;0.40;0.20;;;;;;;18.11;86.75;100761.06;5005588;28;20499;-49
2023/08/11 05:23:49;;;;;;;0.40;0.20;;;;;;;18.10;86.56;100760.19;5000738;28;20535;-48
2023/08/11 05:26:16;;;;;;;0.40;0.20;;;;;;;18.39;85.44;100758.66;4999109;28;20552;-48
2023/08/11 05:28:43;;;;;;;0.40;0.20;;;;;;;18.46;84.35;100772.63;5003881;28;20465;-49
2023/08/11 05:31:09;;;;;;;0.40;0.20;;;;;;;18.56;84.63;100765.81;5005321;28;20477;-48
2023/08/11 05:33:36;;;;;;;0.40;0.20;;;;;;;18.64;83.03;100764.50;5001198;28;20483;-49
2023/08/11 05:36:02;;;;;;;0.40;0.20;;;;;;;18.75;83.08;100765.72;4998939;28;20934;-48
2023/08/11 05:38:29;;;;;;;0.40;0.20;;;;;;;18.78;82.93;100768.25;5007272;28;20519;-48
2023/08/11 05:40:55;;;;;;;0.40;0.20;;;;;;;18.85;82.72;100773.19;4998998;28;20583;-49
2023/08/11 05:43:22;;;;;;;0.40;0.20;;;;;;;18.99;82.57;100780.53;5002464;28;21018;-49
2023/08/11 05:45:48;;;;;;;0.40;0.20;;;;;;;19.22;81.67;100766.63;5006659;28;20454;-49
2023/08/11 05:48:15;;;;;;;0.40;0.20;;;;;;;19.22;81.45;100769.34;5004037;28;20551;-49
2023/08/11 05:50:45;;;;;;;0.40;0.23;;;;;;;19.48;80.62;100775.06;5005529;28;20468;-49
2023/08/11 05:53:12;;;;;;;0.40;0.20;;;;;;;19.64;80.09;100770.53;5000840;28;20455;-50
2023/08/11 05:55:39;;;;;;;0.40;0.20;;;;;;;19.61;80.83;100775.25;4998649;28;20512;-48
2023/08/11 05:58:05;;;;;;;0.40;0.20;;;;;;;19.74;80.11;100766.34;5002962;28;20434;-49
2023/08/11 06:00:32;;;;;;;0.40;0.20;;;;;;;19.65;80.11;100774.97;5005437;28;20523;-49
2023/08/11 06:02:58;;;;;;;0.40;0.20;;;;;;;19.96;78.41;100762.38;5001334;28;20548;-49
2023/08/11 06:05:26;;;;;;;0.40;0.20;;;;;;;19.90;78.16;100760.91;4998839;28;21088;-49
2023/08/11 06:07:53;;;;;;;0.40;0.20;;;;;;;20.19;77.37;100767.25;5002464;28;20888;-49
2023/08/11 06:10:32;;;;;;;0.50;0.20;;;;;;;19.95;78.41;100766.91;5005073;28;20863;-49
2023/08/11 06:12:59;;;;;;;0.50;0.37;;;;;;;20.27;77.43;100772.16;5006923;28;20528;-50
2023/08/11 06:15:25;;;;;;;0.40;0.20;;;;;;;20.01;78.54;100763.84;5001761;28;20506;-49
2023/08/11 06:17:52;;;;;;;0.63;0.57;;;;;;;19.94;79.07;100773.25;5003730;28;20484;-49
2023/08/11 06:20:19;;;;;;;0.40;0.20;;;;;;;20.21;78.78;100773.44;5010944;28;20496;-48
2023/08/11 06:23:04;;;;;;;0.40;0.20;;;;;;;20.25;78.07;100768.69;5008657;28;20520;-49
2023/08/11 06:25:31;;;;;;;0.40;0.20;;;;;;;20.22;78.48;100767.06;5003581;28;20452;-49
2023/08/11 06:27:57;;;;;;;0.40;0.20;;;;;;;20.26;78.25;100771.31;5001762;28;20461;-49
2023/08/11 06:30:27;;;;;;;0.40;0.20;;;;;;;20.22;78.61;100774.28;5006758;28;20528;-49
2023/08/11 06:32:54;;;;;;;0.40;0.20;;;;;;;20.23;79.03;100770.63;5008499;28;20543;-49
2023/08/11 06:35:20;;;;;;;0.50;0.20;;;;;;;20.11;78.79;100767.72;5004172;28;20448;-49
2023/08/11 06:37:47;;;;;;;0.40;0.20;;;;;;;20.07;78.08;100766.16;5001886;28;20532;-49
2023/08/11 06:40:13;;;;;;;0.50;0.30;;;;;;;19.91;78.63;100769.88;5005356;28;20448;-49
2023/08/11 06:42:40;;;;;;;0.50;0.20;;;;;;;20.15;76.62;100775.63;5008078;28;20496;-49
2023/08/11 06:45:07;;;;;;;0.40;0.20;;;;;;;20.13;77.12;100770.31;5003802;28;20445;-49
2023/08/11 06:47:34;;;;;;;0.40;0.20;;;;;;;20.39;77.04;100774.13;5012797;28;20452;-49
2023/08/11 06:50:01;;;;;;;0.40;0.20;;;;;;;20.29;77.19;100775.66;5003799;28;20500;-49
2023/08/11 06:52:28;;;;;;;0.50;0.20;;;;;;;20.03;77.19;100779.94;5001511;28;20457;-49
2023/08/11 06:54:55;;;;;;;0.40;0.20;;;;;;;20.14;77.84;100769.34;5005354;28;20547;-49
2023/08/11 06:57:21;;;;;;;0.40;0.20;;;;;;;20.24;77.84;100775.94;5008132;28;20454;-49
2023/08/11 06:59:48;;;;;;;0.40;0.20;;;;;;;20.15;75.73;100781.00;5003196;28;20506;-49
2023/08/11 07:02:15;;;;;;;0.50;0.30;;;;;;;20.20;77.43;100778.91;5001164;28;20492;-49
2023/08/11 07:04:41;;;;;;;0.43;0.20;;;;;;;20.42;77.16;100784.75;5004993;28;20458;-49
2023/08/11 07:07:08;;;;;;;0.40;0.20;;;;;;;20.75;75.07;100780.94;5007940;28;20994;-49
2023/08/11 07:09:34;;;;;;;0.50;0.20;;;;;;;20.91;74.24;100793.38;4997693;28;20544;-49
2023/08/11 07:12:01;;;;;;;0.50;0.20;;;;;;;21.09;74.29;100787.75;5007618;28;20429;-49
2023/08/11 07:14:27;;;;;;;0.40;0.20;;;;;;;20.75;73.50;100791.75;5004407;28;20487;-49
2023/08/11 07:16:54;;;;;;;0.40;0.20;;;;;;;20.95;71.61;100794.91;5000992;28;20506;-49
2023/08/11 07:19:20;;;;;;;0.43;0.30;;;;;;;21.17;71.42;100789.00;5004272;28;20484;-49
2023/08/11 07:21:47;;;;;;;0.47;0.20;;;;;;;21.03;71.96;100793.56;5007335;28;20503;-49
2023/08/11 07:24:13;;;;;;;0.50;0.20;;;;;;;21.16;70.23;100794.53;5004255;28;20507;-51
2023/08/11 07:26:40;;;;;;;0.40;0.20;;;;;;;21.48;71.48;100792.44;5000845;28;20433;-51
2023/08/11 07:29:06;;;;;;;1.80;1.67;;;;;;;20.94;70.00;100779.66;5003826;28;20449;-51
2023/08/11 07:31:33;;;;;;;0.50;0.30;;;;;;;21.13;71.19;100784.78;5008221;28;20481;-51
2023/08/11 07:33:59;;;;;;;0.50;0.20;;;;;;;21.61;71.40;100785.25;5004313;28;20423;-51
2023/08/11 07:36:26;;;;;;;2.73;2.63;;;;;;;21.66;71.60;100782.28;5000482;28;20452;-51
2023/08/11 07:38:52;;;;;;;0.40;0.20;;;;;;;21.50;72.60;100785.97;5011021;28;20430;-51
2023/08/11 07:41:25;;;;;;;0.40;0.20;;;;;;;21.43;72.56;100781.94;5000676;28;20497;-51
2023/08/11 07:43:51;;;;;;;0.50;0.20;;;;;;;21.03;75.43;100785.47;5002845;28;20446;-51
2023/08/11 07:46:18;;;;;;;0.50;0.20;;;;;;;21.26;74.75;100785.75;5012403;28;20444;-51
2023/08/11 07:48:44;;;;;;;0.77;0.77;;;;;;;21.60;73.93;100772.69;5002610;28;20499;-51
2023/08/11 07:51:14;;;;;;;0.40;0.20;;;;;;;21.89;72.91;100793.25;5006927;28;20448;-51
2023/08/11 07:53:40;;;;;;;0.40;0.20;;;;;;;21.76;73.04;100788.78;5005824;28;20882;-51
2023/08/11 07:56:07;;;;;;;0.40;0.20;;;;;;;21.48;73.80;100785.19;5000262;28;20456;-51
2023/08/11 07:58:34;;;;;;;0.50;0.20;;;;;;;21.83;73.60;100780.16;5001017;28;20450;-51
2023/08/11 08:01:01;;;;;;;0.50;0.20;;;;;;;21.89;73.82;100785.13;5006520;28;21061;-51
2023/08/11 08:03:28;;;;;;;0.40;0.20;;;;;;;22.47;72.34;100783.84;5006638;28;20461;-51
2023/08/11 08:05:54;;;;;;;0.80;0.70;;;;;;;22.92;70.87;100786.19;5000144;28;20459;-51
2023/08/11 08:08:21;;;;;;;0.50;0.20;;;;;;;23.19;69.55;100781.47;5003703;28;20431;-51
2023/08/11 08:10:47;;;;;;;0.50;0.20;;;;;;;22.60;71.30;100778.44;5000009;28;20476;-51
2023/08/11 08:13:14;;;;;;;0.50;0.20;;;;;;;22.89;71.88;100781.84;5000413;28;20449;-51
2023/08/11 08:15:40;;;;;;;0.50;0.20;;;;;;;22.84;70.27;100783.13;5006622;28;20430;-51
2023/08/11 08:18:07;;;;;;;0.50;0.30;;;;;;;22.76;70.46;100776.41;5006278;28;20482;-51
2023/08/11 08:20:33;;;;;;;0.50;0.20;;;;;;;22.62;71.93;100770.22;4999881;28;20470;-51
2023/08/11 08:23:00;;;;;;;0.60;0.60;;;;;;;23.20;70.03;100782.31;5000164;28;20567;-51
2023/08/11 08:25:26;;;;;;;0.50;0.30;;;;;;;23.33;68.32;100781.31;4987192;28;20431;-51
2023/08/11 08:27:53;;;;;;;0.50;0.30;;;;;;;23.64;67.94;100779.03;4999680;28;20481;-51
2023/08/11 08:30:32;;;;;;;0.50;0.23;;;;;;;23.52;67.52;100771.78;5004210;28;20506;-51
2023/08/11 08:32:59;;;;;;;0.50;0.20;;;;;;;23.52;65.88;100771.78;5006070;28;20448;-51
2023/08/11 08:35:25;;;;;;;0.50;0.30;;;;;;;23.22;65.78;100773.09;5001626;28;20784;-51
2023/08/11 08:37:52;;;;;;;0.50;0.20;;;;;;;23.75;63.23;100765.53;4999701;28;20432;-51
2023/08/11 08:40:19;;;;;;;0.50;0.20;;;;;;;24.07;65.29;100762.19;5003879;28;20488;-51
2023/08/11 08:42:45;;;;;;;0.50;0.20;;;;;;;24.43;64.36;100762.06;5006167;28;20547;-51
2023/08/11 08:45:13;;;;;;;0.50;0.30;;;;;;;23.92;64.45;100765.09;5002325;28;20440;-51
2023/08/11 08:47:41;;;;;;;0.50;0.30;;;;;;;24.20;65.57;100758.41;5009686;28;20534;-51
2023/08/11 08:50:09;;;;;;;0.50;0.30;;;;;;;24.26;64.50;100756.19;5002753;28;20526;-51
2023/08/11 08:52:37;;;;;;;0.50;0.30;;;;;;;24.18;63.64;100759.50;4999247;28;20453;-51
2023/08/11 08:55:04;;;;;;;0.50;0.30;;;;;;;24.92;61.30;100755.41;5002812;28;20453;-51
2023/08/11 08:57:30;;;;;;;0.50;0.20;;;;;;;24.70;62.02;100755.44;5005870;28;20519;-51
2023/08/11 08:59:57;;;;;;;0.50;0.30;;;;;;;24.39;62.25;100755.13;5002665;28;20492;-51
2023/08/11 09:02:27;;;;;;;0.53;0.43;;;;;;;24.82;62.20;100754.44;4999105;28;20467;-51
2023/08/11 09:04:55;;;;;;;0.50;0.30;;;;;;;25.12;61.21;100752.97;5002004;28;20511;-51
2023/08/11 09:07:22;;;;;;;0.50;0.20;;;;;;;25.49;60.09;100753.50;5005998;28;20935;-51
2023/08/11 09:09:48;;;;;;;0.50;0.30;;;;;;;25.76;57.46;100736.72;4996547;28;20470;-51
2023/08/11 09:12:15;;;;;;;0.50;0.30;;;;;;;26.47;56.71;100740.59;5005846;28;20479;-51
2023/08/11 09:14:42;;;;;;;0.50;0.30;;;;;;;25.83;57.23;100741.53;5003779;28;20488;-51
2023/08/11 09:17:09;;;;;;;0.50;0.30;;;;;;;25.65;58.49;100741.22;4999236;28;20447;-51
2023/08/11 09:19:36;;;;;;;0.50;0.30;;;;;;;26.18;55.85;100738.50;5001204;28;20505;-51
2023/08/11 09:22:10;;;;;;;0.50;0.30;;;;;;;26.44;57.20;100738.09;5005648;28;20470;-51
2023/08/11 09:24:38;;;;;;;0.50;0.20;;;;;;;26.37;58.82;100736.94;5005159;28;20449;-51
2023/08/11 09:27:06;;;;;;;0.50;0.30;;;;;;;26.48;54.16;100732.25;4998713;28;20544;-51
2023/08/11 09:29:34;;;;;;;0.50;0.30;;;;;;;26.86;54.57;100736.16;4999213;28;20453;-51
2023/08/11 09:32:02;;;;;;;0.50;0.30;;;;;;;26.78;52.91;100733.25;4986324;28;20437;-51
2023/08/11 09:34:29;;;;;;;0.50;0.30;;;;;;;26.78;52.60;100728.66;4999139;28;20431;-51
2023/08/11 09:36:56;;;;;;;0.50;0.30;;;;;;;27.29;53.11;100730.44;5004953;28;20479;-51
2023/08/11 09:39:26;;;;;;;0.50;0.30;;;;;;;27.04;51.73;100733.69;5005544;28;20518;-51
2023/08/11 09:41:53;;;;;;;0.50;0.30;;;;;;;27.63;53.50;100725.44;5000519;28;20550;-51
2023/08/11 09:44:23;;;;;;;0.50;0.30;;;;;;;27.28;52.39;100726.00;4999463;28;20889;-51
2023/08/11 09:46:49;;;;;;;0.50;0.30;;;;;;;27.53;51.39;100737.38;5015089;28;20517;-51
2023/08/11 09:49:17;;;;;;;0.50;0.30;;;;;;;27.66;50.87;100730.66;4998310;28;20465;-51
2023/08/11 09:51:45;;;;;;;0.50;0.30;;;;;;;27.81;50.84;100736.56;4987969;28;20975;-51
2023/08/11 09:54:14;;;;;;;0.50;0.30;;;;;;;27.96;50.69;100737.88;5009140;28;20457;-51
2023/08/11 09:56:42;;;;;;;0.50;0.30;;;;;;;27.83;50.97;100741.91;5006357;28;20435;-51
2023/08/11 09:59:19;;;;;;;0.50;0.30;;;;;;;26.99;51.41;100735.91;5002202;28;20453;-51
2023/08/11 10:01:46;;;;;;;0.50;0.30;;;;;;;26.83;52.26;100734.56;5003948;28;20461;-51
2023/08/11 10:04:24;;;;;;;0.50;0.30;;;;;;;27.22;52.46;100733.88;5008889;28;20456;-51
2023/08/11 10:06:56;;;;;;;0.50;0.30;;;;;;;27.55;52.77;100729.88;5009232;28;20517;-51
2023/08/11 10:09:25;;;;;;;0.50;0.30;;;;;;;27.48;54.49;100734.22;4999562;28;20431;-51
2023/08/11 10:11:54;;;;;;;0.50;0.30;;;;;;;28.03;51.33;100733.53;5008772;28;20448;-51
2023/08/11 10:14:21;;;;;;;0.50;0.30;;;;;;;27.68;49.91;100733.25;5004125;28;20455;-51
2023/08/11 10:16:47;;;;;;;0.50;0.30;;;;;;;27.74;49.52;100727.22;5002173;28;20520;-51
2023/08/11 10:19:14;;;;;;;0.50;0.30;;;;;;;27.40;49.89;100722.09;5006321;28;20537;-51
2023/08/11 10:21:41;;;;;;;0.50;0.30;;;;;;;27.61;50.32;100726.59;5008373;28;20960;-51
2023/08/11 10:24:09;;;;;;;0.50;0.30;;;;;;;27.94;50.95;100717.13;5004859;28;20509;-51
2023/08/11 10:26:36;;;;;;;0.50;0.30;;;;;;;28.07;50.38;100725.03;5001815;28;20881;-51
2023/08/11 10:29:04;;;;;;;0.50;0.30;;;;;;;28.62;50.66;100720.59;5005169;28;20461;-51
2023/08/11 10:31:31;;;;;;;0.50;0.30;;;;;;;28.01;49.60;100716.41;5008344;28;20506;-51
2023/08/11 10:34:05;;;;;;;0.50;0.30;;;;;;;27.86;49.42;100714.28;5005325;28;20449;-51
2023/08/11 10:36:32;;;;;;;0.50;0.30;;;;;;;28.65;49.55;100714.00;5001740;28;20444;-51
2023/08/11 10:39:01;;;;;;;0.50;0.30;;;;;;;28.35;49.80;100712.34;5011910;28;21029;-51
2023/08/11 10:41:28;;;;;;;0.50;0.30;;;;;;;28.34;50.33;100711.47;5001610;28;20500;-51
2023/08/11 10:43:56;;;;;;;0.50;0.30;;;;;;;27.73;50.09;100704.50;5003045;28;20541;-51
2023/08/11 10:46:30;;;;;;;0.50;0.30;;;;;;;28.24;49.62;100705.16;5013819;28;21448;-51
2023/08/11 10:48:58;;;;;;;0.50;0.30;;;;;;;27.93;50.01;100697.13;5001797;28;20455;-51
2023/08/11 10:51:31;;;;;;;0.60;0.60;;;;;;;28.12;50.96;100693.53;5007210;28;20500;-51
2023/08/11 10:54:11;;;;;;;0.50;0.30;;;;;;;28.33;50.43;100686.00;5008281;28;20473;-51
2023/08/11 10:56:43;;;;;;;0.50;0.30;;;;;;;28.15;51.73;100689.63;5004418;28;20451;-51
2023/08/11 10:59:17;;;;;;;0.50;0.30;;;;;;;28.33;50.32;100680.53;5000953;28;20423;-51
2023/08/11 11:01:45;;;;;;;0.50;0.30;;;;;;;28.41;50.79;100681.69;5002691;28;20476;-51
2023/08/11 11:04:13;;;;;;;0.50;0.30;;;;;;;28.41;50.69;100670.75;5007977;28;20453;-51
2023/08/11 11:06:41;;;;;;;0.50;0.30;;;;;;;28.79;49.05;100675.19;5007409;28;21008;-51
2023/08/11 11:09:08;;;;;;;3.33;3.13;;;;;;;28.90;46.47;100680.47;4997759;28;20424;-51
2023/08/11 11:11:36;;;;;;;0.50;0.30;;;;;;;28.36;47.35;100673.03;5007676;28;20476;-51
2023/08/11 11:14:04;;;;;;;0.50;0.30;;;;;;;28.65;48.36;100672.97;5007601;28;20937;-51
2023/08/11 11:16:32;;;;;;;0.50;0.30;;;;;;;28.46;47.82;100669.28;5007904;28;20540;-51
2023/08/11 11:19:00;;;;;;;0.50;0.30;;;;;;;28.36;48.72;100679.38;5001870;28;20931;-51
2023/08/11 11:21:27;;;;;;;0.50;0.40;;;;;;;28.63;47.64;100660.25;5001083;28;20537;-51
2023/08/11 11:23:54;;;;;;;0.50;0.30;;;;;;;28.82;48.22;100661.19;5006902;28;20489;-51
2023/08/11 11:26:29;;;;;;;0.50;0.30;;;;;;;28.73;47.77;100665.69;5007651;28;20503;-51